Current Conditions
Mostly Cloudy
Conditions




Pressure
1004.92 (hPa) - 29.68 (inHG)
Visibility

10.0 (km) - 6.2 (miles)
   Temperature
9  °C
48°F
6  °C
Dewpoint
82  %
 Humidity
   Wind Speed
9.8  m/s
22  mph
35  km/h
19  kts
   Wind Direction
 250°
West South
West
   Airport Data
URKA
Location Anapa 118 km (73.34 mi)
Metar :URKA 280500Z 25010MPS 9999 SCT/// BKN017CB 09/06 Q1005 R22/290155 TEMPO 25012G18MPS 3000 -TSRA BKN007 BKN020CB RMK QFE749/0999
Fri 28th February 08:00 am
   Raw Metar Info
Raw METAR is the most common format in the world for the transmission of observational weather data. It is highly standardized through the International Civil Aviation Organization (ICAO), which allows it to be understood throughout most of the world.
   API Info
Data Provided by
https://www.checkwx.com/weather/URKA
   © Info
CSS/SVG/PHP scripts were developed by weather34.com for use in the weather34 template © 2015-2020

Guide Info provided by Metar-Wikipedia